Time;durP1;ratioP1;P1;durP2;ratioP2;P2;SDS_P1;SDS_P2;PMS_P1;PMS_P2;Temp;Humidity;BMP_temperature;BMP_pressure;BME280_temperature;BME280_humidity;BME280_pressure;Samples;Min_cycle;Max_cycle;Signal;HPM_P1;HPM_P2
2021/03/09 00:02:03;;;;;;;;;;;-2.20;99.90;;;;;;5075748;28;19954;-75
2021/03/09 00:04:29;;;;;;;;;;;-2.30;99.90;;;;;;5075717;28;19928;-75
2021/03/09 00:06:55;;;;;;;;;;;-2.20;99.90;;;;;;5075092;28;19924;-75
2021/03/09 00:09:21;;;;;;;;;;;-2.20;99.90;;;;;;5075450;28;19925;-75
2021/03/09 00:11:48;;;;;;;;;;;-2.20;99.90;;;;;;5075218;28;19929;-75
2021/03/09 00:14:14;;;;;;;;;;;-2.20;99.90;;;;;;5075507;28;19929;-75
2021/03/09 00:16:41;;;;;;;;;;;-2.20;99.90;;;;;;5075121;28;19936;-75
2021/03/09 00:19:08;;;;;;;;;;;-2.30;99.90;;;;;;5075406;28;19925;-75
2021/03/09 00:21:34;;;;;;;;;;;-2.30;99.90;;;;;;5074781;28;19967;-75
2021/03/09 00:24:01;;;;;;;;;;;-2.30;99.90;;;;;;5075238;28;19928;-75
2021/03/09 00:26:27;;;;;;;;;;;-2.30;99.90;;;;;;5074877;28;19978;-76
2021/03/09 00:28:53;;;;;;;;;;;-2.30;99.90;;;;;;5074715;28;19928;-74
2021/03/09 00:31:19;;;;;;;;;;;-2.40;99.90;;;;;;5075262;28;20300;-75
2021/03/09 00:33:48;;;;;;;;;;;-2.30;99.90;;;;;;5075211;28;19924;-75
2021/03/09 00:36:14;;;;;;;;;;;-2.30;99.90;;;;;;5074734;28;19932;-75
2021/03/09 00:41:20;;;;;;;;;;;-2.40;99.90;;;;;;5074904;28;19928;-75
2021/03/09 00:43:46;;;;;;;;;;;-2.50;99.90;;;;;;5074758;28;19970;-75
2021/03/09 00:46:12;;;;;;;;;;;-2.50;99.90;;;;;;5074738;28;19932;-75
2021/03/09 00:48:39;;;;;;;;;;;-2.50;99.90;;;;;;5074374;28;20313;-75
2021/03/09 00:51:06;;;;;;;;;;;-2.50;99.90;;;;;;5074827;28;19928;-75
2021/03/09 00:53:32;;;;;;;;;;;-0.70;99.90;;;;;;5074695;28;19925;-75
2021/03/09 00:55:58;;;;;;;;;;;-2.60;99.90;;;;;;5074390;28;19931;-75
2021/03/09 00:58:25;;;;;;;;;;;-2.60;99.90;;;;;;5074388;28;19924;-75
2021/03/09 01:00:54;;;;;;;;;;;-2.60;99.90;;;;;;5074351;28;19954;-75
2021/03/09 01:03:20;;;;;;;;;;;-2.60;99.90;;;;;;5074388;28;19936;-75
2021/03/09 01:05:46;;;;;;;;;;;-2.60;99.90;;;;;;5073813;28;19924;-75
2021/03/09 01:08:14;;;;;;;;;;;-2.60;99.90;;;;;;5073860;28;19970;-75
2021/03/09 01:10:40;;;;;;;;;;;-2.50;99.90;;;;;;5074435;28;19924;-74
2021/03/09 01:13:06;;;;;;;;;;;-2.50;99.90;;;;;;5074467;28;20011;-75
2021/03/09 01:15:32;;;;;;;;;;;-2.50;99.90;;;;;;5073773;28;19942;-75
2021/03/09 01:17:58;;;;;;;;;;;-2.50;99.90;;;;;;5074148;28;19925;-75
2021/03/09 01:20:25;;;;;;;;;;;-2.50;99.90;;;;;;5074088;28;20386;-75
2021/03/09 01:22:51;;;;;;;;;;;-2.50;99.90;;;;;;5075008;28;19947;-75
2021/03/09 01:25:18;;;;;;;;;;;-2.50;99.90;;;;;;5074202;28;19924;-75
2021/03/09 01:27:44;;;;;;;;;;;-2.50;99.90;;;;;;5073277;28;20383;-75
2021/03/09 01:30:11;;;;;;;;;;;-2.50;99.90;;;;;;5073870;28;19932;-75
2021/03/09 01:32:38;;;;;;;;;;;-2.40;99.90;;;;;;5073722;28;20383;-75
2021/03/09 01:35:04;;;;;;;;;;;-2.40;99.90;;;;;;5073852;28;19931;-75
2021/03/09 01:37:30;;;;;;;;;;;-2.30;99.90;;;;;;5072995;28;19928;-75
2021/03/09 01:39:57;;;;;;;;;;;-2.30;99.90;;;;;;5073858;28;19924;-74
2021/03/09 01:42:24;;;;;;;;;;;-2.30;99.90;;;;;;5073965;28;19974;-74
2021/03/09 01:44:51;;;;;;;;;;;-2.30;99.90;;;;;;5073276;28;19928;-74
2021/03/09 01:47:17;;;;;;;;;;;-2.40;99.90;;;;;;5073319;28;19925;-75
2021/03/09 01:49:45;;;;;;;;;;;-2.40;99.90;;;;;;5072434;28;21274;-74
2021/03/09 01:52:12;;;;;;;;;;;-2.40;99.90;;;;;;5073560;28;19932;-75
2021/03/09 01:54:40;;;;;;;;;;;-2.40;99.90;;;;;;5073360;28;19924;-75
2021/03/09 01:57:07;;;;;;;;;;;-2.40;99.90;;;;;;5073091;28;19924;-75
2021/03/09 01:59:34;;;;;;;;;;;-2.40;99.90;;;;;;5073246;28;19978;-74
2021/03/09 02:02:00;;;;;;;;;;;-2.40;99.90;;;;;;5072985;28;19924;-75
2021/03/09 02:04:26;;;;;;;;;;;-2.50;99.90;;;;;;5072993;28;20386;-75
2021/03/09 02:06:52;;;;;;;;;;;-2.50;99.90;;;;;;5073182;28;19950;-74
2021/03/09 02:09:19;;;;;;;;;;;-2.50;99.90;;;;;;5073386;28;19954;-75
2021/03/09 02:11:47;;;;;;;;;;;-2.50;99.90;;;;;;5072900;28;19925;-75
2021/03/09 02:14:18;;;;;;;;;;;-2.50;99.90;;;;;;5073206;28;19925;-75
2021/03/09 02:16:50;;;;;;;;;;;-2.50;99.90;;;;;;5072762;28;19928;-74
2021/03/09 02:19:37;;;;;;;;;;;-2.50;99.90;;;;;;5072949;28;20374;-75
2021/03/09 02:22:09;;;;;;;;;;;-2.50;99.90;;;;;;5038846;28;20387;-75
2021/03/09 02:24:54;;;;;;;;;;;-2.60;99.90;;;;;;5073129;28;19924;-75
2021/03/09 02:27:28;;;;;;;;;;;-2.60;99.90;;;;;;5072514;28;20310;-75
2021/03/09 02:30:03;;;;;;;;;;;-2.60;99.90;;;;;;5073171;28;19947;-75
2021/03/09 02:32:29;;;;;;;;;;;-2.60;99.90;;;;;;5072723;28;19970;-75
2021/03/09 02:34:57;;;;;;;;;;;-2.60;99.90;;;;;;5073091;28;19931;-75
2021/03/09 02:37:24;;;;;;;;;;;-2.70;99.90;;;;;;5072459;28;19977;-75
2021/03/09 02:39:51;;;;;;;;;;;-2.70;99.90;;;;;;5072623;28;19928;-75
2021/03/09 02:42:21;;;;;;;;;;;-2.80;99.90;;;;;;5072958;28;19955;-75
2021/03/09 02:44:47;;;;;;;;;;;-2.80;99.90;;;;;;5072836;28;19935;-75
2021/03/09 02:47:14;;;;;;;;;;;-2.90;99.90;;;;;;5072928;28;20287;-75
2021/03/09 02:49:43;;;;;;;;;;;-2.90;99.90;;;;;;5072949;28;19932;-74
2021/03/09 02:52:09;;;;;;;;;;;-2.80;99.90;;;;;;5071636;28;19935;-75
2021/03/09 02:54:36;;;;;;;;;;;-2.90;99.90;;;;;;5072355;28;19924;-74
2021/03/09 02:57:02;;;;;;;;;;;-2.90;99.90;;;;;;5072336;28;19925;-74
2021/03/09 02:59:30;;;;;;;;;;;-2.90;99.90;;;;;;5072280;28;20040;-74
2021/03/09 03:01:56;;;;;;;;;;;-2.90;99.90;;;;;;5072644;28;19978;-74
2021/03/09 03:04:23;;;;;;;;;;;-2.90;99.90;;;;;;5072259;28;19938;-73
2021/03/09 03:06:51;;;;;;;;;;;-2.90;99.90;;;;;;5072287;28;20380;-74
2021/03/09 03:09:18;;;;;;;;;;;-2.90;99.90;;;;;;5072424;28;19977;-74
2021/03/09 03:11:45;;;;;;;;;;;-3.00;99.90;;;;;;5072417;28;19925;-74
2021/03/09 03:14:11;;;;;;;;;;;-2.90;99.90;;;;;;5072577;28;20303;-74
2021/03/09 03:16:37;;;;;;;;;;;-3.00;99.90;;;;;;5076313;28;19925;-74
2021/03/09 03:19:05;;;;;;;;;;;-3.00;99.90;;;;;;5076154;28;19925;-73
2021/03/09 03:21:35;;;;;;;;;;;-3.00;99.90;;;;;;5076235;28;19940;-74
2021/03/09 03:24:02;;;;;;;;;;;-3.00;99.90;;;;;;5076305;28;19924;-74
2021/03/09 03:26:28;;;;;;;;;;;-3.00;99.90;;;;;;5075849;28;20388;-74
2021/03/09 03:28:55;;;;;;;;;;;-3.00;99.90;;;;;;5075913;28;19924;-74
2021/03/09 03:31:21;;;;;;;;;;;-3.10;99.90;;;;;;5075896;28;19924;-74
2021/03/09 03:33:48;;;;;;;;;;;-3.10;99.90;;;;;;5076033;28;19925;-74
2021/03/09 03:36:14;;;;;;;;;;;-3.00;99.90;;;;;;5075819;28;19925;-74
2021/03/09 03:38:41;;;;;;;;;;;-3.10;99.90;;;;;;5075780;28;19936;-76
2021/03/09 03:41:10;;;;;;;;;;;-3.10;99.90;;;;;;5075961;28;19928;-74
2021/03/09 03:43:37;;;;;;;;;;;-3.20;99.90;;;;;;5076182;28;19970;-74
2021/03/09 03:46:04;;;;;;;;;;;-3.20;99.90;;;;;;5075510;28;20352;-74
2021/03/09 03:48:33;;;;;;;;;;;-3.20;99.90;;;;;;5075516;28;19982;-74
2021/03/09 03:51:00;;;;;;;;;;;-3.10;99.90;;;;;;5076217;28;19924;-74
2021/03/09 03:53:28;;;;;;;;;;;-3.20;99.90;;;;;;5076003;28;19924;-74
2021/03/09 03:56:02;;;;;;;;;;;-3.20;99.90;;;;;;5075587;28;19932;-74
2021/03/09 03:58:30;;;;;;;;;;;-3.20;99.90;;;;;;5075930;28;19931;-74
2021/03/09 04:00:58;;;;;;;;;;;-3.20;99.90;;;;;;5075487;28;20364;-73
2021/03/09 04:03:24;;;;;;;;;;;-3.30;99.90;;;;;;5075445;28;19981;-74
2021/03/09 04:05:51;;;;;;;;;;;-3.30;99.90;;;;;;5075309;28;19928;-74
2021/03/09 04:08:18;;;;;;;;;;;-3.20;99.90;;;;;;5074979;28;20368;-74
2021/03/09 04:10:47;;;;;;;;;;;-3.20;99.90;;;;;;5075176;28;20006;-74
2021/03/09 04:13:15;;;;;;;;;;;-3.30;99.90;;;;;;5075363;28;19925;-74
2021/03/09 04:15:41;;;;;;;;;;;-3.30;99.90;;;;;;5075164;28;19929;-74
2021/03/09 04:18:07;;;;;;;;;;;-3.30;99.90;;;;;;5075532;28;19925;-73
2021/03/09 04:20:34;;;;;;;;;;;-3.30;99.90;;;;;;5075350;28;19931;-74
2021/03/09 04:23:00;;;;;;;;;;;-3.30;99.90;;;;;;5075454;28;19929;-73
2021/03/09 04:25:26;;;;;;;;;;;-3.30;99.90;;;;;;5073846;28;20315;-73
2021/03/09 04:27:53;;;;;;;;;;;-3.30;99.90;;;;;;5075181;28;19932;-74
2021/03/09 04:30:20;;;;;;;;;;;-3.30;99.90;;;;;;5075149;28;19924;-74
2021/03/09 04:32:46;;;;;;;;;;;-3.30;99.90;;;;;;5075532;28;19928;-74
2021/03/09 04:35:12;;;;;;;;;;;-3.10;99.90;;;;;;5074797;28;19977;-73
2021/03/09 04:37:41;;;;;;;;;;;-3.20;99.90;;;;;;5074543;28;19936;-74
2021/03/09 04:40:09;;;;;;;;;;;-3.20;99.90;;;;;;5075144;28;19931;-75
2021/03/09 04:42:35;;;;;;;;;;;-3.20;99.90;;;;;;5075094;28;19932;-75
2021/03/09 04:45:01;;;;;;;;;;;-3.20;99.90;;;;;;5074722;28;19925;-75
2021/03/09 04:47:28;;;;;;;;;;;-3.20;99.90;;;;;;5074719;28;19954;-74
2021/03/09 04:49:55;;;;;;;;;;;-3.30;99.90;;;;;;5074791;28;19931;-75
2021/03/09 04:52:22;;;;;;;;;;;-3.30;99.90;;;;;;5075066;28;19924;-75
2021/03/09 04:54:48;;;;;;;;;;;-3.20;99.90;;;;;;5074554;28;19924;-75
2021/03/09 04:57:14;;;;;;;;;;;-3.20;99.90;;;;;;5074183;28;19924;-74
2021/03/09 04:59:40;;;;;;;;;;;-3.20;99.90;;;;;;5074760;28;19924;-75
2021/03/09 05:02:06;;;;;;;;;;;-3.20;99.90;;;;;;5074949;28;19966;-74
2021/03/09 05:04:33;;;;;;;;;;;-3.20;99.90;;;;;;5074385;28;19924;-73
2021/03/09 05:07:00;;;;;;;;;;;-3.20;99.90;;;;;;5074191;28;19933;-73
2021/03/09 05:09:26;;;;;;;;;;;-3.30;99.90;;;;;;5074144;28;19924;-74
2021/03/09 05:11:52;;;;;;;;;;;-3.30;99.90;;;;;;5073780;28;19978;-73
2021/03/09 05:14:18;;;;;;;;;;;-3.40;99.90;;;;;;5074174;28;19977;-74
2021/03/09 05:16:44;;;;;;;;;;;-3.30;99.90;;;;;;5074318;28;19928;-73
2021/03/09 05:19:10;;;;;;;;;;;-3.00;99.90;;;;;;5073930;28;19936;-74
2021/03/09 05:21:38;;;;;;;;;;;-2.70;99.90;;;;;;5074210;28;19924;-74
2021/03/09 05:24:05;;;;;;;;;;;-2.50;99.90;;;;;;5073703;28;19925;-74
2021/03/09 05:26:33;;;;;;;;;;;-2.60;99.90;;;;;;5073530;28;19928;-73
2021/03/09 05:28:59;;;;;;;;;;;-2.70;99.90;;;;;;5073967;28;19924;-74
2021/03/09 05:31:39;;;;;;;;;;;-2.70;99.90;;;;;;5073995;28;19925;-74
2021/03/09 05:34:05;;;;;;;;;;;-2.60;99.90;;;;;;5073661;28;20371;-74
2021/03/09 05:36:32;;;;;;;;;;;-2.50;99.90;;;;;;5073423;28;19929;-74
2021/03/09 05:38:59;;;;;;;;;;;-2.60;99.90;;;;;;5072590;28;20446;-74
2021/03/09 05:41:25;;;;;;;;;;;-2.70;99.90;;;;;;5073669;28;19935;-75
2021/03/09 05:43:53;;;;;;;;;;;-2.80;99.90;;;;;;5073827;28;19966;-74
2021/03/09 05:46:19;;;;;;;;;;;-2.80;99.90;;;;;;5073331;28;19994;-74
2021/03/09 05:48:46;;;;;;;;;;;-2.90;99.90;;;;;;5073495;28;20387;-75
2021/03/09 05:51:12;;;;;;;;;;;-2.80;99.90;;;;;;5073425;28;19928;-74
2021/03/09 05:53:38;;;;;;;;;;;-2.80;99.90;;;;;;5073143;28;20360;-74
2021/03/09 05:56:06;;;;;;;;;;;-2.90;99.90;;;;;;5073343;28;19925;-74
2021/03/09 05:58:32;;;;;;;;;;;-2.80;99.90;;;;;;5073092;28;19925;-75
2021/03/09 06:00:59;;;;;;;;;;;-2.80;99.90;;;;;;5073313;28;20372;-75
2021/03/09 06:03:25;;;;;;;;;;;-2.70;99.90;;;;;;5073333;28;19928;-77
2021/03/09 06:05:51;;;;;;;;;;;-2.60;99.90;;;;;;5072859;28;19967;-75
2021/03/09 06:08:18;;;;;;;;;;;-2.60;99.90;;;;;;5072751;28;20376;-75
2021/03/09 06:10:47;;;;;;;;;;;-2.40;99.90;;;;;;5073353;28;19931;-74
2021/03/09 06:13:32;;;;;;;;;;;-2.20;99.90;;;;;;5073254;28;20019;-74
2021/03/09 06:15:58;;;;;;;;;;;-1.90;99.90;;;;;;5072785;28;19925;-74
2021/03/09 06:18:24;;;;;;;;;;;-1.60;99.90;;;;;;5072588;28;19925;-74
2021/03/09 06:21:06;;;;;;;;;;;-1.30;99.90;;;;;;5072813;28;19928;-74
2021/03/09 06:23:32;;;;;;;;;;;-1.10;99.90;;;;;;5075334;28;19931;-74
2021/03/09 06:25:58;;;;;;;;;;;-0.90;99.90;;;;;;5073692;28;19924;-74
2021/03/09 06:28:29;;;;;;;;;;;-0.60;99.90;;;;;;5072605;28;19998;-74
2021/03/09 06:30:55;;;;;;;;;;;-0.20;99.90;;;;;;5073045;28;20287;-74
2021/03/09 06:33:26;;;;;;;;;;;0.20;99.90;;;;;;5072954;28;19932;-74
2021/03/09 06:35:52;;;;;;;;;;;0.80;99.90;;;;;;5072772;28;19924;-74
2021/03/09 06:38:19;;;;;;;;;;;1.60;99.90;;;;;;5072554;28;19925;-74
2021/03/09 06:41:04;;;;;;;;;;;2.20;99.90;;;;;;5072763;28;19924;-74
2021/03/09 06:43:31;;;;;;;;;;;2.50;98.30;;;;;;5072713;28;20476;-74
2021/03/09 06:46:09;;;;;;;;;;;2.70;95.80;;;;;;5072647;28;19978;-74
2021/03/09 06:48:37;;;;;;;;;;;2.90;94.70;;;;;;5066613;28;19928;-74
2021/03/09 06:51:04;;;;;;;;;;;3.20;93.60;;;;;;5059486;28;19924;-74
2021/03/09 06:53:29;;;;;;;;;;;3.30;92.70;;;;;;5059446;28;19987;-74
2021/03/09 06:55:56;;;;;;;;;;;3.70;91.70;;;;;;5059176;28;19932;-74
2021/03/09 06:58:27;;;;;;;;;;;4.10;90.50;;;;;;5058910;28;19924;-74
2021/03/09 07:00:56;;;;;;;;;;;4.30;88.70;;;;;;5061202;28;20265;-74
2021/03/09 07:03:34;;;;;;;;;;;4.50;86.80;;;;;;5079311;28;19925;-74
2021/03/09 07:06:00;;;;;;;;;;;4.70;84.80;;;;;;5078868;28;20031;-74
2021/03/09 07:08:26;;;;;;;;;;;4.90;84.10;;;;;;5078926;28;19947;-74
2021/03/09 07:10:52;;;;;;;;;;;5.30;82.10;;;;;;5079287;28;19924;-75
2021/03/09 07:13:23;;;;;;;;;;;5.40;79.80;;;;;;5079275;28;19947;-74
2021/03/09 07:15:49;;;;;;;;;;;5.40;78.80;;;;;;5078792;28;19924;-74
2021/03/09 07:18:19;;;;;;;;;;;5.20;77.90;;;;;;5078563;28;19970;-74
2021/03/09 07:20:45;;;;;;;;;;;5.00;79.20;;;;;;5079435;28;19924;-74
2021/03/09 07:23:13;;;;;;;;;;;5.00;77.40;;;;;;5078384;28;20359;-75
2021/03/09 07:25:39;;;;;;;;;;;4.80;76.50;;;;;;5078955;28;19932;-74
2021/03/09 07:28:10;;;;;;;;;;;4.80;76.90;;;;;;5079167;28;19924;-74
2021/03/09 07:30:39;;;;;;;;;;;4.90;76.70;;;;;;5078842;28;19928;-74
2021/03/09 07:33:05;;;;;;;;;;;5.00;75.80;;;;;;5079052;28;19925;-74
2021/03/09 07:35:33;;;;;;;;;;;5.10;76.20;;;;;;5078508;28;19924;-74
2021/03/09 07:37:59;;;;;;;;;;;5.40;75.60;;;;;;5078833;28;19935;-74
2021/03/09 07:40:26;;;;;;;;;;;5.50;73.60;;;;;;5079094;28;19938;-74
2021/03/09 07:42:52;;;;;;;;;;;5.70;73.00;;;;;;5082426;28;19936;-75
2021/03/09 07:45:20;;;;;;;;;;;6.00;72.40;;;;;;5084510;28;19932;-74
2021/03/09 07:47:47;;;;;;;;;;;6.20;70.70;;;;;;5080114;28;19924;-74
2021/03/09 07:50:13;;;;;;;;;;;6.20;69.50;;;;;;5078488;28;19924;-74
2021/03/09 07:53:02;;;;;;;;;;;6.40;70.00;;;;;;5079170;28;19963;-74
2021/03/09 07:55:28;;;;;;;;;;;7.10;66.70;;;;;;5078383;28;19924;-74
2021/03/09 07:58:09;;;;;;;;;;;7.20;67.00;;;;;;5078990;28;19924;-74
2021/03/09 08:01:00;;;;;;;;;;;7.80;66.10;;;;;;5075991;28;19978;-74
2021/03/09 08:03:27;;;;;;;;;;;9.20;60.90;;;;;;5075538;28;19924;-74
2021/03/09 08:05:54;;;;;;;;;;;9.40;60.30;;;;;;5075218;28;20020;-74
2021/03/09 08:08:41;;;;;;;;;;;9.90;57.40;;;;;;5074856;28;19924;-73
2021/03/09 08:11:07;;;;;;;;;;;10.30;56.70;;;;;;5078719;28;20340;-73
2021/03/09 08:13:34;;;;;;;;;;;10.60;55.70;;;;;;5081715;28;19925;-72
2021/03/09 08:16:30;;;;;;;;;;;10.60;54.60;;;;;;5074193;28;19978;-72
2021/03/09 08:18:56;;;;;;;;;;;11.30;54.70;;;;;;5074598;28;19931;-73
2021/03/09 08:21:38;;;;;;;;;;;11.90;53.20;;;;;;5074886;28;19924;-73
2021/03/09 08:24:05;;;;;;;;;;;12.30;51.30;;;;;;5073926;28;19924;-74
2021/03/09 08:26:46;;;;;;;;;;;12.70;50.40;;;;;;5074978;28;19928;-74
2021/03/09 08:29:32;;;;;;;;;;;13.10;48.50;;;;;;5074902;28;19925;-72
2021/03/09 08:32:21;;;;;;;;;;;13.40;47.00;;;;;;5075027;28;19932;-73
2021/03/09 08:34:47;;;;;;;;;;;13.10;46.60;;;;;;5064383;28;19970;-75
2021/03/09 08:37:30;;;;;;;;;;;12.90;46.00;;;;;;5074898;28;19925;-76
2021/03/09 08:40:05;;;;;;;;;;;13.00;46.60;;;;;;5074541;28;19947;-72
2021/03/09 08:42:59;;;;;;;;;;;13.30;46.80;;;;;;5074639;28;19928;-76
2021/03/09 08:45:34;;;;;;;;;;;13.40;46.50;;;;;;5074301;28;19924;-76
2021/03/09 08:48:00;;;;;;;;;;;13.60;46.20;;;;;;5074304;28;20379;-73
2021/03/09 08:50:38;;;;;;;;;;;13.70;45.30;;;;;;5074284;28;19931;-74
2021/03/09 08:53:05;;;;;;;;;;;13.90;45.10;;;;;;5074662;28;20276;-72
2021/03/09 08:55:32;;;;;;;;;;;13.90;44.90;;;;;;5073960;28;19928;-74
2021/03/09 08:58:07;;;;;;;;;;;14.00;45.20;;;;;;5074445;28;19924;-73
2021/03/09 09:00:39;;;;;;;;;;;14.10;44.00;;;;;;5074159;28;19955;-74
2021/03/09 09:03:05;;;;;;;;;;;14.10;45.30;;;;;;5074270;28;19924;-73
2021/03/09 09:05:31;;;;;;;;;;;14.10;44.20;;;;;;5073090;28;19943;-72
2021/03/09 09:07:57;;;;;;;;;;;14.10;44.30;;;;;;5073705;28;20347;-72
2021/03/09 09:10:24;;;;;;;;;;;14.50;43.60;;;;;;5073839;28;19931;-72
2021/03/09 09:12:51;;;;;;;;;;;14.70;43.30;;;;;;5057777;28;19970;-71
2021/03/09 09:15:21;;;;;;;;;;;15.10;41.80;;;;;;5073829;28;19993;-71
2021/03/09 09:17:48;;;;;;;;;;;15.40;40.40;;;;;;5074097;28;19932;-71
2021/03/09 09:20:16;;;;;;;;;;;15.80;39.50;;;;;;5074255;28;20293;-71
2021/03/09 09:22:42;;;;;;;;;;;16.20;39.10;;;;;;5073371;28;20437;-71
2021/03/09 09:25:10;;;;;;;;;;;16.60;39.40;;;;;;5073616;28;19925;-71
2021/03/09 09:27:40;;;;;;;;;;;17.20;38.50;;;;;;5073175;28;19925;-71
2021/03/09 09:30:08;;;;;;;;;;;17.70;37.50;;;;;;5073926;28;19924;-70
2021/03/09 09:32:47;;;;;;;;;;;18.30;34.30;;;;;;5073234;28;19936;-70
2021/03/09 09:35:13;;;;;;;;;;;18.70;33.10;;;;;;5073733;28;19925;-71
2021/03/09 09:37:46;;;;;;;;;;;19.00;32.10;;;;;;5073198;28;20019;-71
2021/03/09 09:40:13;;;;;;;;;;;18.70;31.70;;;;;;5074042;28;19924;-72
2021/03/09 09:42:39;;;;;;;;;;;16.00;32.90;;;;;;5073400;28;19970;-72
2021/03/09 09:45:07;;;;;;;;;;;14.90;35.20;;;;;;5073440;28;19929;-72
2021/03/09 09:47:33;;;;;;;;;;;14.10;36.70;;;;;;5072812;28;19932;-72
2021/03/09 09:50:01;;;;;;;;;;;15.00;37.30;;;;;;5073171;28;19954;-75
2021/03/09 09:52:27;;;;;;;;;;;16.10;36.70;;;;;;5073480;28;19925;-73
2021/03/09 09:54:55;;;;;;;;;;;16.90;34.30;;;;;;5072891;28;19978;-74
2021/03/09 09:57:23;;;;;;;;;;;16.40;33.40;;;;;;5072964;28;19928;-76
2021/03/09 09:59:49;;;;;;;;;;;16.40;34.40;;;;;;5073794;28;19924;-76
2021/03/09 10:02:17;;;;;;;;;;;15.90;33.70;;;;;;5073964;28;19925;-76
2021/03/09 10:04:43;;;;;;;;;;;15.80;34.30;;;;;;5073221;28;19925;-73
2021/03/09 10:07:16;;;;;;;;;;;15.70;34.80;;;;;;5073120;28;19932;-73
2021/03/09 10:09:58;;;;;;;;;;;15.70;34.30;;;;;;5072919;28;20298;-74
2021/03/09 10:12:31;;;;;;;;;;;16.00;34.50;;;;;;5073385;28;19924;-73
2021/03/09 10:14:57;;;;;;;;;;;16.80;34.00;;;;;;5073000;28;19993;-71
2021/03/09 10:17:24;;;;;;;;;;;17.00;32.50;;;;;;5072760;28;20534;-71
2021/03/09 10:19:51;;;;;;;;;;;16.60;32.60;;;;;;5072926;28;19925;-71
2021/03/09 10:22:18;;;;;;;;;;;16.80;33.90;;;;;;5072797;28;19925;-71
2021/03/09 10:24:44;;;;;;;;;;;17.70;32.40;;;;;;5072383;28;19928;-73
2021/03/09 10:27:13;;;;;;;;;;;17.40;31.00;;;;;;5072483;28;19931;-74
2021/03/09 10:29:40;;;;;;;;;;;16.50;32.50;;;;;;5072741;28;19924;-73
2021/03/09 10:32:12;;;;;;;;;;;16.90;31.80;;;;;;5072685;28;19967;-74
2021/03/09 10:34:39;;;;;;;;;;;17.40;31.50;;;;;;5072830;28;19950;-73
2021/03/09 10:37:07;;;;;;;;;;;17.30;30.80;;;;;;5072424;28;19932;-73
2021/03/09 10:39:34;;;;;;;;;;;16.90;30.80;;;;;;5072993;28;19925;-73
2021/03/09 10:42:14;;;;;;;;;;;17.20;31.30;;;;;;5072759;28;20307;-73
2021/03/09 10:44:40;;;;;;;;;;;18.50;30.20;;;;;;5071726;28;20394;-72
2021/03/09 10:47:07;;;;;;;;;;;19.60;28.90;;;;;;5072118;28;19925;-73
2021/03/09 10:49:33;;;;;;;;;;;20.00;28.80;;;;;;5072750;28;19924;-73
2021/03/09 10:52:01;;;;;;;;;;;19.20;28.20;;;;;;5073015;28;19931;-73
2021/03/09 10:54:29;;;;;;;;;;;19.10;29.20;;;;;;5072524;28;19924;-73
2021/03/09 10:56:56;;;;;;;;;;;19.00;29.10;;;;;;5072257;28;20303;-74
2021/03/09 10:59:22;;;;;;;;;;;19.70;28.70;;;;;;5072492;28;20281;-73
2021/03/09 11:01:48;;;;;;;;;;;20.00;28.20;;;;;;5072547;28;20421;-73
2021/03/09 11:04:14;;;;;;;;;;;21.10;27.90;;;;;;5072951;28;19951;-74
2021/03/09 11:06:40;;;;;;;;;;;21.10;28.30;;;;;;5072547;28;19932;-74
2021/03/09 11:09:07;;;;;;;;;;;20.60;27.70;;;;;;5072548;28;19925;-73
2021/03/09 11:11:33;;;;;;;;;;;19.50;28.20;;;;;;5072567;28;20407;-73
2021/03/09 11:14:00;;;;;;;;;;;18.50;28.00;;;;;;5072477;28;19924;-73
2021/03/09 11:16:28;;;;;;;;;;;18.40;28.40;;;;;;5072072;28;19925;-73
2021/03/09 11:18:54;;;;;;;;;;;18.20;29.00;;;;;;5072203;28;19925;-75
2021/03/09 11:21:20;;;;;;;;;;;18.70;28.50;;;;;;5072646;28;19924;-74
2021/03/09 11:23:50;;;;;;;;;;;19.10;28.10;;;;;;5072577;28;19924;-74
2021/03/09 11:26:17;;;;;;;;;;;18.90;27.90;;;;;;5073675;28;19925;-74
2021/03/09 11:28:44;;;;;;;;;;;18.10;27.90;;;;;;5071992;28;19924;-74
2021/03/09 11:31:10;;;;;;;;;;;18.30;28.60;;;;;;5072194;28;19925;-74
2021/03/09 11:33:36;;;;;;;;;;;18.80;28.00;;;;;;5072336;28;20342;-73
2021/03/09 11:36:02;;;;;;;;;;;18.50;28.20;;;;;;5073172;28;19931;-74
2021/03/09 11:38:28;;;;;;;;;;;18.10;28.50;;;;;;5075632;28;19924;-73
2021/03/09 11:40:54;;;;;;;;;;;17.70;29.30;;;;;;5075954;28;20356;-74
2021/03/09 11:43:22;;;;;;;;;;;17.60;30.00;;;;;;5076001;28;20012;-73
2021/03/09 11:45:48;;;;;;;;;;;17.50;29.50;;;;;;5075319;28;20260;-73
2021/03/09 11:48:14;;;;;;;;;;;17.70;30.00;;;;;;5075635;28;19946;-73
2021/03/09 11:50:40;;;;;;;;;;;17.60;29.70;;;;;;5075790;28;19924;-73
2021/03/09 11:53:06;;;;;;;;;;;17.30;29.50;;;;;;5076152;28;19924;-73
2021/03/09 11:55:32;;;;;;;;;;;17.20;29.60;;;;;;5075376;28;19924;-73
2021/03/09 11:57:58;;;;;;;;;;;16.80;29.80;;;;;;5075395;28;19925;-73
2021/03/09 12:00:25;;;;;;;;;;;17.10;29.00;;;;;;5075281;28;19924;-73
2021/03/09 12:02:52;;;;;;;;;;;17.00;29.60;;;;;;5075377;28;19928;-74
2021/03/09 12:05:17;;;;;;;;;;;16.80;29.90;;;;;;5075580;28;19928;-73
2021/03/09 12:10:24;;;;;;;;;;;16.40;31.10;;;;;;5076689;28;19924;-74
2021/03/09 12:12:50;;;;;;;;;;;16.60;30.70;;;;;;5075185;28;19968;-74
2021/03/09 12:15:16;;;;;;;;;;;16.20;30.20;;;;;;5075413;28;19932;-74
2021/03/09 12:17:43;;;;;;;;;;;15.80;30.80;;;;;;5075098;28;20281;-74
2021/03/09 12:20:09;;;;;;;;;;;15.70;30.80;;;;;;5075236;28;20363;-74
2021/03/09 12:22:37;;;;;;;;;;;16.10;30.70;;;;;;5075236;28;19940;-74
2021/03/09 12:25:03;;;;;;;;;;;16.20;31.30;;;;;;5075096;28;19977;-73
2021/03/09 12:27:29;;;;;;;;;;;16.50;30.00;;;;;;5074463;28;19924;-73
2021/03/09 12:29:55;;;;;;;;;;;16.70;30.00;;;;;;5075506;28;19924;-74
2021/03/09 12:32:21;;;;;;;;;;;17.00;30.10;;;;;;5075173;28;20369;-74
2021/03/09 12:34:48;;;;;;;;;;;17.40;29.80;;;;;;5075076;28;19924;-74
2021/03/09 12:37:14;;;;;;;;;;;18.40;29.50;;;;;;5074479;28;19925;-74
2021/03/09 12:39:42;;;;;;;;;;;19.10;28.30;;;;;;5074837;28;19925;-74
2021/03/09 12:42:08;;;;;;;;;;;18.70;26.60;;;;;;5074735;28;19925;-74
2021/03/09 12:44:34;;;;;;;;;;;18.60;27.00;;;;;;5075123;28;19966;-74
2021/03/09 12:47:00;;;;;;;;;;;19.30;27.40;;;;;;5073647;28;19924;-74
2021/03/09 12:49:26;;;;;;;;;;;19.90;28.30;;;;;;5074815;28;20391;-74
2021/03/09 12:51:53;;;;;;;;;;;20.00;26.20;;;;;;5074869;28;19925;-74
2021/03/09 12:54:19;;;;;;;;;;;19.80;26.00;;;;;;5074692;28;19925;-74
2021/03/09 12:56:44;;;;;;;;;;;19.80;26.70;;;;;;5074251;28;19935;-74
2021/03/09 12:59:10;;;;;;;;;;;19.40;27.10;;;;;;5074097;28;19932;-74
2021/03/09 13:01:36;;;;;;;;;;;19.50;27.50;;;;;;5074699;28;19931;-74
2021/03/09 13:04:02;;;;;;;;;;;20.10;28.30;;;;;;5074451;28;20333;-74
2021/03/09 13:06:28;;;;;;;;;;;20.60;27.80;;;;;;5074142;28;19971;-73
2021/03/09 13:08:55;;;;;;;;;;;21.00;27.10;;;;;;5073676;28;19924;-73
2021/03/09 13:11:22;;;;;;;;;;;20.30;26.30;;;;;;5074338;28;19931;-73
2021/03/09 13:13:48;;;;;;;;;;;19.50;26.70;;;;;;5074334;28;20295;-73
2021/03/09 13:16:15;;;;;;;;;;;18.50;27.40;;;;;;5073949;28;19932;-73
2021/03/09 13:18:41;;;;;;;;;;;17.60;28.20;;;;;;5073723;28;19924;-73
2021/03/09 13:21:07;;;;;;;;;;;17.60;28.90;;;;;;5074074;28;19932;-73
2021/03/09 13:23:33;;;;;;;;;;;17.80;28.60;;;;;;5073923;28;19929;-73
2021/03/09 13:26:00;;;;;;;;;;;18.60;28.60;;;;;;5073772;28;19932;-73
2021/03/09 13:28:26;;;;;;;;;;;18.90;28.70;;;;;;5073893;28;19928;-73
2021/03/09 13:30:52;;;;;;;;;;;20.10;26.60;;;;;;5074062;28;19982;-73
2021/03/09 13:33:17;;;;;;;;;;;20.30;26.20;;;;;;5074031;28;19925;-72
2021/03/09 13:35:43;;;;;;;;;;;20.10;26.30;;;;;;5073495;28;19936;-74
2021/03/09 13:38:09;;;;;;;;;;;20.40;26.50;;;;;;5073335;28;20372;-73
2021/03/09 13:40:35;;;;;;;;;;;20.60;25.80;;;;;;5073993;28;19928;-73
2021/03/09 13:43:04;;;;;;;;;;;20.80;26.30;;;;;;5073715;28;19935;-73
2021/03/09 13:45:30;;;;;;;;;;;20.70;25.90;;;;;;5073215;28;19932;-73
2021/03/09 13:47:57;;;;;;;;;;;21.10;26.50;;;;;;5073368;28;19925;-73
2021/03/09 13:50:23;;;;;;;;;;;21.30;27.10;;;;;;5073497;28;19924;-74
2021/03/09 13:52:49;;;;;;;;;;;21.50;26.30;;;;;;5073520;28;19954;-73
2021/03/09 13:55:15;;;;;;;;;;;21.60;26.00;;;;;;5073564;28;19924;-73
2021/03/09 13:57:41;;;;;;;;;;;21.40;26.30;;;;;;5072830;28;19977;-73
2021/03/09 14:00:09;;;;;;;;;;;21.50;26.40;;;;;;5072987;28;19925;-73
2021/03/09 14:02:36;;;;;;;;;;;21.10;25.80;;;;;;5073578;28;19924;-73
2021/03/09 14:05:02;;;;;;;;;;;21.00;25.90;;;;;;5073115;28;20395;-73
2021/03/09 14:07:28;;;;;;;;;;;21.10;25.70;;;;;;5072761;28;20380;-73
2021/03/09 14:09:54;;;;;;;;;;;19.70;25.40;;;;;;5072991;28;19947;-74
2021/03/09 14:12:20;;;;;;;;;;;19.40;26.70;;;;;;5073296;28;20275;-72
2021/03/09 14:14:48;;;;;;;;;;;19.20;27.30;;;;;;5073294;28;20299;-73
2021/03/09 14:17:16;;;;;;;;;;;19.20;27.30;;;;;;5072746;28;19931;-73
2021/03/09 14:19:42;;;;;;;;;;;19.30;27.70;;;;;;5072918;28;19928;-73
2021/03/09 14:22:08;;;;;;;;;;;19.60;27.60;;;;;;5072756;28;20275;-73
2021/03/09 14:24:34;;;;;;;;;;;20.20;27.00;;;;;;5073121;28;19978;-73
2021/03/09 14:27:00;;;;;;;;;;;20.30;26.10;;;;;;5072564;28;19974;-73
2021/03/09 14:29:26;;;;;;;;;;;20.10;26.40;;;;;;5072949;28;20345;-73